Time;durP1;ratioP1;P1;durP2;ratioP2;P2;SDS_P1;SDS_P2;PMS_P1;PMS_P2;Temp;Humidity;BMP_temperature;BMP_pressure;BME280_temperature;BME280_humidity;BME280_pressure;Samples;Min_cycle;Max_cycle;Signal;HPM_P1;HPM_P2
2023/12/31 09:56:19;;;;;;;1.67;1.23;;;;;;;8.48;100.00;99485.34;5392852;27;20930;-71
2023/12/31 09:58:51;;;;;;;1.97;0.93;;;;;;;8.57;100.00;99467.41;5352354;27;20469;-72
2023/12/31 10:01:24;;;;;;;2.23;1.43;;;;;;;8.69;100.00;99484.75;5358243;27;20030;-71
2023/12/31 10:03:56;;;;;;;4.50;1.10;;;;;;;8.70;100.00;99485.59;5364897;27;20033;-71
2023/12/31 10:06:27;;;;;;;3.20;1.20;;;;;;;8.64;100.00;99473.81;5371328;27;20050;-77
2023/12/31 10:09:01;;;;;;;5.40;0.80;;;;;;;8.69;100.00;99474.31;5368849;27;20176;-71
2023/12/31 10:11:32;;;;;;;2.17;0.87;;;;;;;8.76;100.00;99455.59;5357876;27;20443;-71
2023/12/31 10:14:04;;;;;;;3.10;0.70;;;;;;;8.70;100.00;99462.94;5372049;27;20031;-73
2023/12/31 10:16:40;;;;;;;2.07;0.80;;;;;;;8.75;100.00;99467.81;5363354;27;20503;-72
2023/12/31 10:19:12;;;;;;;3.40;1.47;;;;;;;8.83;100.00;99467.25;5370964;27;20102;-72
2023/12/31 10:21:43;;;;;;;1.80;0.67;;;;;;;8.79;100.00;99476.25;5358554;27;20102;-72
2023/12/31 10:24:24;;;;;;;3.73;0.70;;;;;;;8.84;100.00;99463.66;5369113;27;20034;-73
2023/12/31 10:26:56;;;;;;;2.03;0.97;;;;;;;8.78;100.00;99467.56;5369587;27;20122;-72
2023/12/31 10:29:27;;;;;;;2.30;1.03;;;;;;;8.70;100.00;99475.13;5375532;27;20101;-73
2023/12/31 10:31:58;;;;;;;2.77;1.17;;;;;;;8.71;100.00;99468.97;5344566;27;20035;-73
2023/12/31 10:34:30;;;;;;;2.40;1.20;;;;;;;8.66;100.00;99471.91;5363326;27;20092;-71
2023/12/31 10:37:06;;;;;;;2.60;0.80;;;;;;;8.66;100.00;99469.31;5366462;27;20023;-70
2023/12/31 10:39:38;;;;;;;5.83;1.50;;;;;;;8.64;100.00;99478.22;5340185;27;20022;-72
2023/12/31 10:42:09;;;;;;;2.80;0.93;;;;;;;8.60;100.00;99482.81;5364178;27;20026;-73
2023/12/31 10:44:42;;;;;;;2.27;0.80;;;;;;;8.63;100.00;99471.31;5374017;27;20033;-73
2023/12/31 10:47:18;;;;;;;1.77;0.83;;;;;;;8.53;100.00;99485.03;5373432;27;20620;-70
2023/12/31 10:49:49;;;;;;;4.90;1.77;;;;;;;8.51;100.00;99488.69;5376356;27;20027;-71
2023/12/31 10:52:21;;;;;;;2.20;0.80;;;;;;;8.56;100.00;99481.38;5370737;27;20028;-71
2023/12/31 10:54:55;;;;;;;3.43;0.83;;;;;;;8.55;100.00;99472.72;5376390;27;20042;-71
2023/12/31 10:57:26;;;;;;;3.35;1.48;;;;;;;8.54;100.00;99472.78;5377273;27;20027;-71
2023/12/31 10:59:59;;;;;;;4.10;0.77;;;;;;;8.48;100.00;99468.88;5352943;27;20137;-71
2023/12/31 11:02:30;;;;;;;2.43;0.90;;;;;;;8.42;100.00;99464.94;5375514;27;20015;-71
2023/12/31 11:05:03;;;;;;;3.23;1.03;;;;;;;8.50;100.00;99466.16;5375857;27;20018;-70
2023/12/31 11:07:35;;;;;;;4.50;0.90;;;;;;;8.52;100.00;99469.50;5357943;27;20026;-71
2023/12/31 11:10:08;;;;;;;2.60;0.73;;;;;;;8.66;100.00;99490.19;5356114;27;20038;-70
2023/12/31 11:12:40;;;;;;;4.30;1.00;;;;;;;8.71;100.00;99488.06;5329060;27;20422;-72
2023/12/31 11:15:21;;;;;;;3.17;0.80;;;;;;;8.89;100.00;99481.59;5361728;27;20117;-71
2023/12/31 11:18:11;;;;;;;2.50;0.97;;;;;;;8.97;100.00;99473.19;5357052;27;20539;-71
2023/12/31 11:21:07;;;;;;;5.03;1.40;;;;;;;9.00;100.00;99480.78;5354738;27;20432;-71
2023/12/31 11:23:47;;;;;;;4.40;0.90;;;;;;;9.04;100.00;99477.81;5351213;27;20023;-70
2023/12/31 11:26:18;;;;;;;1.17;0.50;;;;;;;9.16;100.00;99475.25;5352072;27;20034;-77
2023/12/31 11:28:50;;;;;;;2.00;0.80;;;;;;;9.17;100.00;99475.13;5357114;27;20019;-71
2023/12/31 11:31:21;;;;;;;2.20;0.67;;;;;;;9.27;100.00;99470.03;5332296;27;20373;-71
2023/12/31 11:33:53;;;;;;;4.03;1.13;;;;;;;9.21;100.00;99480.97;5349987;27;20022;-70
2023/12/31 11:36:25;;;;;;;4.13;0.73;;;;;;;9.23;100.00;99483.44;5355875;27;20477;-69
2023/12/31 11:38:59;;;;;;;5.00;1.03;;;;;;;9.18;100.00;99482.00;5345863;27;20030;-71
2023/12/31 11:41:32;;;;;;;2.13;1.02;;;;;;;9.19;100.00;99481.06;5352229;27;20023;-70
2023/12/31 11:44:03;;;;;;;3.87;0.90;;;;;;;9.12;100.00;99492.94;5351659;27;20037;-71
2023/12/31 11:46:40;;;;;;;2.33;0.80;;;;;;;9.05;100.00;99473.44;5356499;27;20022;-70
2023/12/31 11:49:12;;;;;;;1.27;0.50;;;;;;;9.15;100.00;99490.09;5342959;27;20060;-69
2023/12/31 11:51:53;;;;;;;1.60;0.60;;;;;;;9.08;100.00;99481.03;5355424;27;20453;-70
2023/12/31 11:54:34;;;;;;;2.50;0.87;;;;;;;9.13;100.00;99485.94;5326355;27;20070;-70
2023/12/31 11:57:08;;;;;;;3.47;0.77;;;;;;;8.98;100.00;99480.91;5341058;27;20042;-70
2023/12/31 11:59:42;;;;;;;;;;;;;;;9.30;100.00;99487.25;5354149;27;20049;-70
2023/12/31 12:02:14;;;;;;;2.67;0.73;;;;;;;8.95;100.00;99486.38;5326693;27;19912;-70
2023/12/31 12:04:46;;;;;;;3.17;0.97;;;;;;;8.98;100.00;99485.28;5360891;27;20035;-70
2023/12/31 12:07:17;;;;;;;3.27;0.83;;;;;;;8.99;100.00;99492.19;5352425;27;20023;-69
2023/12/31 12:09:48;;;;;;;2.27;1.27;;;;;;;9.01;100.00;99491.13;5344885;27;20133;-70
2023/12/31 12:12:22;;;;;;;2.17;0.70;;;;;;;8.97;100.00;99500.16;5359990;27;20071;-71
2023/12/31 12:14:53;;;;;;;4.23;0.73;;;;;;;8.99;100.00;99486.97;5345558;27;20046;-73
2023/12/31 12:17:28;;;;;;;2.27;0.93;;;;;;;9.07;100.00;99476.78;5348538;27;20077;-70
2023/12/31 12:19:59;;;;;;;3.47;1.00;;;;;;;8.99;100.00;99506.06;5341314;27;20034;-72
2023/12/31 12:22:31;;;;;;;5.60;1.07;;;;;;;8.87;100.00;99489.53;5349650;27;20023;-72
2023/12/31 12:25:04;;;;;;;2.83;1.07;;;;;;;8.94;100.00;99495.97;5347222;27;20046;-73
2023/12/31 12:27:36;;;;;;;2.93;0.90;;;;;;;8.83;100.00;99499.38;5345447;27;20688;-72
2023/12/31 12:30:08;;;;;;;5.87;2.03;;;;;;;8.87;100.00;99494.78;5347364;27;20054;-71
2023/12/31 12:32:45;;;;;;;2.97;1.00;;;;;;;8.84;100.00;99500.22;5347231;27;20030;-72
2023/12/31 12:35:16;;;;;;;4.43;1.00;;;;;;;8.70;100.00;99494.25;5328693;27;20027;-71
2023/12/31 12:37:48;;;;;;;7.43;2.13;;;;;;;8.75;100.00;99496.50;5322711;27;20033;-71
2023/12/31 12:40:19;;;;;;;5.77;2.00;;;;;;;8.59;100.00;99496.81;5347259;27;20061;-69
2023/12/31 12:42:53;;;;;;;4.33;2.03;;;;;;;8.70;100.00;99506.47;5338139;27;20030;-71
2023/12/31 12:45:24;;;;;;;6.50;1.40;;;;;;;8.61;100.00;99489.69;5353618;27;20019;-72
2023/12/31 12:48:00;;;;;;;4.33;1.60;;;;;;;8.81;100.00;99509.09;5356343;27;20019;-72
2023/12/31 12:50:31;;;;;;;6.00;1.43;;;;;;;8.76;100.00;99523.47;5325679;27;20046;-71
2023/12/31 12:53:03;;;;;;;5.57;1.67;;;;;;;8.70;100.00;99512.53;5342484;27;20066;-70
2023/12/31 12:55:34;;;;;;;8.23;1.50;;;;;;;8.69;100.00;99518.66;5340819;27;20058;-75
2023/12/31 12:58:05;;;;;;;8.23;1.63;;;;;;;8.67;100.00;99515.38;5344190;27;20054;-71
2023/12/31 13:00:36;;;;;;;7.57;1.30;;;;;;;8.63;100.00;99508.69;5341314;27;20077;-71
2023/12/31 13:03:08;;;;;;;4.73;1.60;;;;;;;8.59;100.00;99515.06;5346492;27;20635;-71
2023/12/31 13:05:39;;;;;;;11.53;3.37;;;;;;;8.70;100.00;99512.53;5353420;27;20388;-71
2023/12/31 13:08:10;;;;;;;6.90;1.80;;;;;;;8.78;100.00;99517.16;5348966;27;20090;-71
2023/12/31 13:10:42;;;;;;;6.43;2.07;;;;;;;8.83;100.00;99516.84;5331416;27;20044;-70
2023/12/31 13:13:13;;;;;;;4.90;1.50;;;;;;;8.96;100.00;99511.53;5360895;27;20105;-71
2023/12/31 13:15:44;;;;;;;6.33;2.10;;;;;;;8.84;100.00;99521.09;5358389;27;21482;-73
2023/12/31 13:18:16;;;;;;;5.63;1.50;;;;;;;8.82;100.00;99518.63;5349697;27;20105;-70
2023/12/31 13:20:47;;;;;;;10.37;2.13;;;;;;;8.99;100.00;99521.75;5347522;27;20027;-71
2023/12/31 13:23:18;;;;;;;8.63;2.23;;;;;;;8.77;100.00;99506.84;5354187;27;20027;-71
2023/12/31 13:25:50;;;;;;;9.07;2.00;;;;;;;8.83;100.00;99519.47;5348734;27;20432;-72
2023/12/31 13:28:21;;;;;;;11.17;2.60;;;;;;;9.01;100.00;99519.84;5349043;27;20084;-68
2023/12/31 13:30:53;;;;;;;5.03;1.90;;;;;;;9.00;100.00;99520.81;5355672;27;20094;-69
2023/12/31 13:33:25;;;;;;;8.50;2.47;;;;;;;8.98;100.00;99527.06;5353467;27;20102;-69
2023/12/31 13:35:57;;;;;;;5.80;1.43;;;;;;;9.00;100.00;99515.59;5341730;27;20030;-71
2023/12/31 13:38:28;;;;;;;8.53;1.87;;;;;;;8.95;100.00;99515.09;5341616;27;20635;-68
2023/12/31 13:41:00;;;;;;;4.33;1.60;;;;;;;9.04;100.00;99510.97;5345714;27;20043;-68
2023/12/31 13:43:31;;;;;;;8.67;1.57;;;;;;;8.99;100.00;99515.69;5345103;27;20023;-70
2023/12/31 13:46:03;;;;;;;7.87;1.83;;;;;;;8.97;100.00;99504.53;5350456;27;20080;-70
2023/12/31 13:48:34;;;;;;;5.23;1.30;;;;;;;9.10;100.00;99510.50;5330552;27;20030;-74
2023/12/31 13:51:08;;;;;;;9.93;2.10;;;;;;;9.07;100.00;99497.69;5324724;27;20358;-73
2023/12/31 13:53:40;;;;;;;6.60;2.42;;;;;;;9.12;100.00;99487.72;5337286;27;20062;-70
2023/12/31 13:56:11;;;;;;;7.77;1.77;;;;;;;9.08;100.00;99496.72;5329019;27;20186;-71
2023/12/31 13:58:42;;;;;;;7.90;2.10;;;;;;;9.03;100.00;99493.63;5347391;27;20031;-71
2023/12/31 14:01:14;;;;;;;9.00;1.87;;;;;;;9.04;100.00;99488.28;5345205;27;20057;-71
2023/12/31 14:03:45;;;;;;;9.20;2.50;;;;;;;9.02;100.00;99491.97;5336393;27;20031;-72
2023/12/31 14:06:16;;;;;;;12.53;2.50;;;;;;;8.91;100.00;99491.00;5349319;27;20384;-74
2023/12/31 14:08:48;;;;;;;8.43;2.10;;;;;;;9.01;100.00;99504.19;5351782;27;20031;-72
2023/12/31 14:11:19;;;;;;;9.93;3.03;;;;;;;9.02;100.00;99497.19;5341524;27;20028;-73
2023/12/31 14:13:50;;;;;;;6.27;1.93;;;;;;;9.01;100.00;99495.50;5330169;27;20041;-69
2023/12/31 14:16:22;;;;;;;8.57;2.97;;;;;;;9.02;100.00;99502.41;5342447;27;20027;-70
2023/12/31 14:18:53;;;;;;;13.10;2.77;;;;;;;8.99;100.00;99493.00;5339508;27;20023;-71
2023/12/31 14:21:24;;;;;;;7.10;2.23;;;;;;;8.94;100.00;99505.59;5346881;27;20109;-71
2023/12/31 14:23:56;;;;;;;10.97;3.10;;;;;;;9.02;100.00;99512.84;5331801;27;20030;-71
2023/12/31 14:26:27;;;;;;;6.53;1.97;;;;;;;8.97;100.00;99514.97;5340231;27;20027;-73
2023/12/31 14:28:59;;;;;;;11.03;2.33;;;;;;;8.86;100.00;99511.38;5343278;27;20088;-72
2023/12/31 14:31:31;;;;;;;7.23;2.43;;;;;;;8.91;100.00;99511.03;5344682;27;20076;-72
2023/12/31 14:34:02;;;;;;;10.43;3.43;;;;;;;8.93;100.00;99520.44;5337898;27;20027;-72
2023/12/31 14:36:34;;;;;;;12.50;2.70;;;;;;;8.93;100.00;99515.22;5324503;27;20027;-74
2023/12/31 14:39:07;;;;;;;9.63;2.93;;;;;;;8.94;100.00;99514.25;5349676;27;20030;-72
2023/12/31 14:41:38;;;;;;;8.70;2.27;;;;;;;8.91;100.00;99511.03;5345260;27;20019;-75
2023/12/31 14:44:13;;;;;;;7.67;2.37;;;;;;;8.91;100.00;99517.09;5355567;27;20380;-72
2023/12/31 14:46:45;;;;;;;9.63;2.13;;;;;;;8.92;100.00;99503.09;5347847;27;20031;-73
2023/12/31 14:49:17;;;;;;;9.73;2.20;;;;;;;8.94;100.00;99505.59;5333986;27;20030;-72
2023/12/31 14:51:48;;;;;;;12.73;2.77;;;;;;;9.01;100.00;99508.56;5358537;27;20026;-73
2023/12/31 14:54:20;;;;;;;12.57;2.43;;;;;;;8.88;100.00;99501.66;5351330;27;20092;-73
2023/12/31 14:56:52;;;;;;;12.67;3.20;;;;;;;8.91;100.00;99508.44;5340984;27;20031;-73
2023/12/31 14:59:23;;;;;;;12.27;3.07;;;;;;;8.94;100.00;99501.19;5348259;27;20027;-74
2023/12/31 15:01:54;;;;;;;14.37;3.50;;;;;;;8.97;100.00;99509.75;5348372;27;20168;-73
2023/12/31 15:04:26;;;;;;;12.60;2.40;;;;;;;8.94;100.00;99503.81;5352688;27;20397;-78
2023/12/31 15:06:57;;;;;;;17.40;3.60;;;;;;;8.98;100.00;99506.19;5350210;27;20566;-74
2023/12/31 15:09:28;;;;;;;8.17;2.97;;;;;;;8.89;100.00;99503.31;5351561;27;20034;-77
2023/12/31 15:12:00;;;;;;;13.77;4.03;;;;;;;8.86;100.00;99495.72;5355535;27;20029;-77
2023/12/31 15:14:31;;;;;;;14.03;3.03;;;;;;;8.85;100.00;99490.63;5348391;27;20038;-74
2023/12/31 15:17:02;;;;;;;17.03;3.50;;;;;;;8.94;100.00;99495.97;5351025;27;20029;-75
2023/12/31 15:19:34;;;;;;;14.83;3.33;;;;;;;8.94;100.00;99510.81;5350181;27;20018;-77
2023/12/31 15:22:05;;;;;;;17.87;4.57;;;;;;;8.81;100.00;99493.44;5353109;27;20027;-79
2023/12/31 15:24:36;;;;;;;12.87;3.67;;;;;;;8.81;100.00;99490.00;5355122;27;20026;-81
2023/12/31 15:27:08;;;;;;;16.23;3.67;;;;;;;8.99;100.00;99508.69;5353415;27;20038;-80
2023/12/31 15:29:39;;;;;;;15.37;3.40;;;;;;;9.01;100.00;99513.78;5335646;27;20066;-72
2023/12/31 15:32:10;;;;;;;14.43;3.23;;;;;;;8.94;100.00;99505.59;5354189;27;20034;-73
2023/12/31 15:34:41;;;;;;;17.40;3.70;;;;;;;8.92;100.00;99497.88;5359187;27;20030;-70
2023/12/31 15:37:13;;;;;;;14.43;3.97;;;;;;;8.90;100.00;99510.19;5359976;27;20023;-71
2023/12/31 15:39:44;;;;;;;13.40;3.90;;;;;;;8.93;100.00;99514.38;5361298;27;20109;-72
2023/12/31 15:42:16;;;;;;;15.47;3.90;;;;;;;8.91;100.00;99511.03;5356464;27;20027;-71
2023/12/31 15:44:48;;;;;;;15.27;4.33;;;;;;;8.90;100.00;99497.16;5352597;27;20377;-72
2023/12/31 15:47:19;;;;;;;16.67;3.17;;;;;;;8.81;100.00;99495.22;5359878;27;20031;-71
2023/12/31 15:49:50;;;;;;;12.87;3.23;;;;;;;8.92;100.00;99510.91;5360599;27;20023;-71
2023/12/31 15:52:21;;;;;;;18.13;5.37;;;;;;;8.87;100.00;99500.00;5357124;27;20733;-71
2023/12/31 15:54:54;;;;;;;14.50;3.63;;;;;;;8.91;100.00;99508.44;5349255;27;20493;-71
2023/12/31 15:57:25;;;;;;;18.53;4.23;;;;;;;8.87;100.00;99509.59;5343998;27;20031;-71
2023/12/31 15:59:58;;;;;;;14.73;3.37;;;;;;;8.80;100.00;99509.22;5353628;27;20099;-70
2023/12/31 16:02:32;;;;;;;17.67;3.70;;;;;;;8.90;100.00;99507.59;5349851;27;20761;-71
2023/12/31 16:05:04;;;;;;;15.80;3.78;;;;;;;8.79;100.00;99508.41;5329809;27;20423;-71
2023/12/31 16:07:35;;;;;;;19.07;4.57;;;;;;;8.87;100.00;99517.41;5339201;27;20019;-72
2023/12/31 16:10:09;;;;;;;11.87;3.53;;;;;;;8.83;100.00;99503.78;5339071;27;20023;-72
2023/12/31 16:12:40;;;;;;;16.80;4.57;;;;;;;8.93;100.00;99509.16;5342482;27;20022;-72
2023/12/31 16:15:12;;;;;;;16.87;4.50;;;;;;;8.86;100.00;99508.78;5350205;27;20038;-71
2023/12/31 16:17:43;;;;;;;13.83;3.47;;;;;;;8.79;100.00;99497.13;5341869;27;20027;-72
2023/12/31 16:20:16;;;;;;;16.07;3.73;;;;;;;8.83;100.00;99512.44;5346095;27;20027;-71
2023/12/31 16:22:47;;;;;;;12.40;3.00;;;;;;;8.83;100.00;99517.66;5340949;27;20037;-70
2023/12/31 16:25:18;;;;;;;16.00;4.13;;;;;;;8.83;100.00;99516.84;5342167;27;20019;-70
2023/12/31 16:27:50;;;;;;;9.80;2.57;;;;;;;8.89;100.00;99520.75;5358236;27;20492;-71
2023/12/31 16:30:21;;;;;;;14.60;3.90;;;;;;;8.93;100.00;99530.03;5351277;27;20052;-71
2023/12/31 16:32:52;;;;;;;11.70;4.33;;;;;;;8.88;100.00;99526.94;5343975;27;20081;-71
2023/12/31 16:35:23;;;;;;;17.30;4.53;;;;;;;8.77;100.00;99515.50;5344606;27;20027;-72
2023/12/31 16:37:55;;;;;;;15.30;4.40;;;;;;;8.71;100.00;99521.16;5353451;27;20489;-71
2023/12/31 16:40:26;;;;;;;17.07;4.30;;;;;;;8.66;100.00;99507.63;5349994;27;20027;-71
2023/12/31 16:42:58;;;;;;;17.37;4.70;;;;;;;8.65;100.00;99514.63;5336043;27;20050;-72
2023/12/31 16:45:29;;;;;;;19.10;4.67;;;;;;;8.62;100.00;99508.81;5352575;27;20023;-75
2023/12/31 16:48:02;;;;;;;17.30;3.87;;;;;;;8.71;100.00;99521.16;5347132;27;20143;-71
2023/12/31 16:50:34;;;;;;;18.87;4.53;;;;;;;8.70;100.00;99514.28;5340743;27;20023;-71
2023/12/31 16:53:06;;;;;;;20.60;4.67;;;;;;;8.68;100.00;99506.59;5341497;27;20022;-71
2023/12/31 16:55:38;;;;;;;19.30;4.87;;;;;;;8.68;100.00;99511.78;5345678;27;20425;-71
2023/12/31 16:58:09;;;;;;;18.97;3.97;;;;;;;8.62;100.00;99496.59;5345192;27;20027;-71
2023/12/31 17:00:40;;;;;;;15.07;4.70;;;;;;;8.70;100.00;99504.69;5354063;27;20454;-71
2023/12/31 17:03:12;;;;;;;18.30;4.60;;;;;;;8.66;100.00;99503.25;5340865;27;20123;-71
2023/12/31 17:05:43;;;;;;;17.43;4.37;;;;;;;8.80;100.00;99504.00;5346698;27;20019;-71
2023/12/31 17:08:14;;;;;;;17.27;3.77;;;;;;;8.79;100.00;99512.78;5347259;27;20155;-71
2023/12/31 17:10:46;;;;;;;17.53;4.50;;;;;;;8.74;100.00;99510.53;5342010;27;20027;-71
2023/12/31 17:13:17;;;;;;;17.07;3.73;;;;;;;8.76;100.00;99508.59;5353277;27;20018;-71
2023/12/31 17:15:48;;;;;;;14.20;3.77;;;;;;;8.81;100.00;99518.72;5344846;27;20121;-70
2023/12/31 17:18:20;;;;;;;17.37;4.37;;;;;;;8.78;100.00;99518.97;5354280;27;20022;-72
2023/12/31 17:20:51;;;;;;;14.17;3.73;;;;;;;8.85;100.00;99527.97;5326437;27;20082;-74
2023/12/31 17:23:23;;;;;;;17.23;3.87;;;;;;;8.78;100.00;99522.38;5345830;27;20042;-71
2023/12/31 17:25:54;;;;;;;14.87;4.77;;;;;;;8.75;100.00;99522.63;5340676;27;20019;-72
2023/12/31 17:28:26;;;;;;;18.37;4.83;;;;;;;8.78;100.00;99519.78;5342331;27;20035;-71
2023/12/31 17:30:59;;;;;;;11.47;3.80;;;;;;;8.74;100.00;99522.72;5351094;27;20038;-71
2023/12/31 17:33:30;;;;;;;16.03;5.20;;;;;;;8.67;100.00;99517.13;5347921;27;20026;-72
2023/12/31 17:36:01;;;;;;;13.57;5.47;;;;;;;8.77;100.00;99520.72;5347687;27;20042;-71
2023/12/31 17:38:32;;;;;;;15.13;4.10;;;;;;;8.74;100.00;99522.72;5350572;27;20023;-69
2023/12/31 17:41:04;;;;;;;19.60;4.23;;;;;;;8.70;100.00;99519.50;5321293;27;20172;-70
2023/12/31 17:43:35;;;;;;;14.10;3.57;;;;;;;8.75;100.00;99527.00;5356013;27;20018;-71
2023/12/31 17:46:06;;;;;;;17.67;4.27;;;;;;;8.71;100.00;99529.84;5334069;27;20030;-71
2023/12/31 17:48:38;;;;;;;12.27;3.67;;;;;;;8.75;100.00;99533.06;5344504;27;20029;-70
2023/12/31 17:51:09;;;;;;;13.83;4.10;;;;;;;8.80;100.00;99525.72;5355597;27;20057;-70
2023/12/31 17:53:40;;;;;;;19.07;3.93;;;;;;;8.84;100.00;99528.94;5351403;27;20154;-69
2023/12/31 17:56:11;;;;;;;16.13;3.37;;;;;;;8.83;100.00;99529.91;5346927;27;20054;-71
2023/12/31 17:58:43;;;;;;;15.63;3.37;;;;;;;8.86;100.00;99529.66;5347169;27;20033;-70
2023/12/31 18:01:14;;;;;;;12.17;2.80;;;;;;;8.85;100.00;99530.59;5348506;27;20068;-69
2023/12/31 18:03:46;;;;;;;12.37;3.33;;;;;;;8.91;100.00;99526.72;5343603;27;20031;-69
2023/12/31 18:06:17;;;;;;;12.23;3.03;;;;;;;8.84;100.00;99542.00;5347842;27;20079;-69
2023/12/31 18:08:48;;;;;;;16.60;8.07;;;;;;;8.90;100.00;99545.94;5346885;27;20031;-71
2023/12/31 18:11:21;;;;;;;13.40;2.90;;;;;;;8.93;100.00;99533.50;5330565;27;20481;-70
2023/12/31 18:13:52;;;;;;;11.67;3.00;;;;;;;8.92;100.00;99536.22;5346211;27;20052;-69
2023/12/31 18:16:23;;;;;;;11.33;2.77;;;;;;;8.89;100.00;99534.66;5341325;27;20031;-70
2023/12/31 18:18:54;;;;;;;11.63;3.53;;;;;;;8.89;100.00;99539.88;5345760;27;20070;-71
2023/12/31 18:21:26;;;;;;;10.63;3.40;;;;;;;8.85;100.00;99530.59;5342376;27;20027;-69
2023/12/31 18:23:57;;;;;;;14.87;3.87;;;;;;;8.83;100.00;99543.75;5358962;27;20106;-70
2023/12/31 18:26:30;;;;;;;8.23;2.93;;;;;;;8.87;100.00;99546.16;5335373;27;20030;-68
2023/12/31 18:29:03;;;;;;;11.13;3.17;;;;;;;8.87;100.00;99546.97;5347503;27;20076;-70
2023/12/31 18:31:35;;;;;;;10.53;3.30;;;;;;;8.90;100.00;99543.34;5334111;27;20034;-71
2023/12/31 18:34:06;;;;;;;10.93;3.27;;;;;;;8.84;100.00;99547.22;5343456;27;20331;-70
2023/12/31 18:36:41;;;;;;;10.03;3.50;;;;;;;8.88;100.00;99548.66;5353241;27;20038;-69
2023/12/31 18:39:13;;;;;;;;;;;;;;;9.06;100.00;99556.06;5355153;27;20038;-72
2023/12/31 18:41:45;;;;;;;11.90;3.87;;;;;;;8.86;100.00;99550.56;5346334;27;20379;-72
2023/12/31 18:44:17;;;;;;;9.17;1.63;;;;;;;8.91;100.00;99571.94;5360152;27;20110;-71
2023/12/31 18:46:49;;;;;;;14.37;4.10;;;;;;;8.91;100.00;99558.03;5353936;27;20034;-72
2023/12/31 18:49:25;;;;;;;10.93;2.93;;;;;;;8.79;100.00;99549.34;5350926;27;20023;-74
2023/12/31 18:51:56;;;;;;;9.03;2.50;;;;;;;8.89;100.00;99555.53;5348939;27;20034;-74
2023/12/31 18:54:27;;;;;;;8.17;2.40;;;;;;;8.89;100.00;99560.75;5357585;27;20042;-70
2023/12/31 18:56:58;;;;;;;9.30;2.40;;;;;;;8.83;100.00;99548.19;5358328;27;20027;-72
2023/12/31 18:59:30;;;;;;;11.17;3.37;;;;;;;8.82;100.00;99546.50;5337863;27;20033;-70
2023/12/31 19:02:01;;;;;;;10.13;3.60;;;;;;;8.76;100.00;99562.63;5339428;27;20091;-75
2023/12/31 19:04:32;;;;;;;9.83;2.87;;;;;;;8.82;100.00;99563.00;5353827;27;20026;-71
2023/12/31 19:07:05;;;;;;;11.50;2.33;;;;;;;8.90;100.00;99567.66;5348235;27;20035;-74
2023/12/31 19:09:36;;;;;;;9.33;2.77;;;;;;;8.83;100.00;99561.22;5357439;27;20059;-74
2023/12/31 19:12:09;;;;;;;7.57;2.93;;;;;;;9.01;100.00;99571.25;5362995;27;20060;-71
2023/12/31 19:14:41;;;;;;;12.63;2.83;;;;;;;8.82;100.00;99570.84;5359546;27;20023;-71
2023/12/31 19:17:12;;;;;;;7.83;2.23;;;;;;;8.88;100.00;99569.56;5352917;27;20027;-73
2023/12/31 19:19:43;;;;;;;10.07;2.67;;;;;;;8.83;100.00;99550.78;5350160;27;20011;-71
2023/12/31 19:22:15;;;;;;;10.80;3.10;;;;;;;8.87;100.00;99567.03;5361940;27;20019;-68
2023/12/31 19:24:46;;;;;;;16.97;4.77;;;;;;;8.78;100.00;99569.38;5362538;27;20026;-72
2023/12/31 19:27:17;;;;;;;6.07;3.10;;;;;;;8.88;100.00;99573.94;5360050;27;20022;-71
2023/12/31 19:29:48;;;;;;;11.80;2.67;;;;;;;8.85;100.00;99584.63;5353223;27;20072;-69
2023/12/31 19:32:20;;;;;;;8.43;2.60;;;;;;;8.84;100.00;99599.44;5337064;27;20054;-72
2023/12/31 19:34:51;;;;;;;10.93;3.00;;;;;;;8.75;100.00;99600.09;5359802;27;20106;-72
2023/12/31 19:37:23;;;;;;;10.60;2.80;;;;;;;8.66;100.00;99597.22;5361171;27;20034;-72
2023/12/31 19:39:54;;;;;;;11.30;3.73;;;;;;;8.73;100.00;99610.66;5361197;27;20282;-70
2023/12/31 19:42:25;;;;;;;12.57;3.23;;;;;;;8.60;100.00;99621.16;5345078;27;20026;-75
2023/12/31 19:44:56;;;;;;;10.80;3.40;;;;;;;8.59;100.00;99622.06;5347453;27;20018;-75
2023/12/31 19:47:28;;;;;;;8.60;2.13;;;;;;;8.47;100.00;99601.09;5362046;27;20034;-74
2023/12/31 19:49:59;;;;;;;5.93;1.97;;;;;;;8.56;100.00;99619.69;5345116;27;20035;-76
2023/12/31 19:52:30;;;;;;;9.30;2.10;;;;;;;8.56;100.00;99627.53;5361026;27;20035;-75
2023/12/31 19:55:03;;;;;;;10.40;2.43;;;;;;;8.52;100.00;99611.22;5349493;27;20055;-76
2023/12/31 19:57:34;;;;;;;8.23;2.70;;;;;;;8.54;100.00;99632.81;5354727;27;20031;-76
2023/12/31 20:00:06;;;;;;;13.83;3.67;;;;;;;8.58;100.00;99623.03;5350214;27;20037;-73
2023/12/31 20:02:37;;;;;;;8.40;3.63;;;;;;;8.48;100.00;99626.25;5326484;27;20114;-73
2023/12/31 20:05:09;;;;;;;6.53;3.03;;;;;;;8.43;100.00;99615.31;5353963;27;20038;-73
2023/12/31 20:07:40;;;;;;;7.60;3.23;;;;;;;8.49;100.00;99624.47;5349098;27;20086;-75
2023/12/31 20:10:11;;;;;;;12.17;3.33;;;;;;;8.44;100.00;99622.22;5322362;27;20051;-79
2023/12/31 20:12:44;;;;;;;6.93;2.83;;;;;;;8.50;100.00;99627.94;5336989;27;20018;-75
2023/12/31 20:15:16;;;;;;;12.27;3.40;;;;;;;8.52;100.00;99631.28;5360125;27;20510;-78
2023/12/31 20:17:47;;;;;;;11.87;2.77;;;;;;;8.47;100.00;99627.19;5340525;27;20022;-73
2023/12/31 20:20:18;;;;;;;11.00;4.00;;;;;;;8.53;100.00;99622.50;5360596;27;20027;-74
2023/12/31 20:22:50;;;;;;;7.03;2.50;;;;;;;8.51;100.00;99625.22;5360266;27;20151;-77
2023/12/31 20:25:21;;;;;;;11.47;3.37;;;;;;;8.55;100.00;99621.47;5348584;27;20027;-77
2023/12/31 20:27:53;;;;;;;6.20;1.70;;;;;;;8.64;100.00;99627.78;5345074;27;20450;-80
2023/12/31 20:30:24;;;;;;;10.73;2.73;;;;;;;8.51;100.00;99630.44;5347865;27;20118;-71
2023/12/31 20:32:56;;;;;;;7.33;3.50;;;;;;;8.67;100.00;99639.81;5348564;27;20033;-73
2023/12/31 20:35:27;;;;;;;9.30;2.73;;;;;;;8.58;100.00;99631.69;5346838;27;20031;-76
2023/12/31 20:37:58;;;;;;;7.00;1.73;;;;;;;8.68;100.00;99636.25;5341241;27;20114;-70
2023/12/31 20:40:30;;;;;;;8.57;3.10;;;;;;;8.57;100.00;99634.41;5359019;27;20071;-73
2023/12/31 20:43:03;;;;;;;9.67;1.90;;;;;;;8.52;100.00;99637.31;5360071;27;20109;-70
2023/12/31 20:45:35;;;;;;;6.72;2.97;;;;;;;8.60;100.00;99647.25;5359984;27;20026;-70
2023/12/31 20:48:07;;;;;;;9.57;2.90;;;;;;;8.63;100.00;99647.03;5339497;27;20029;-71
2023/12/31 20:50:41;;;;;;;7.77;2.87;;;;;;;8.57;100.00;99650.91;5360035;27;20018;-70
2023/12/31 20:53:13;;;;;;;7.07;2.25;;;;;;;8.48;100.00;99654.94;5358261;27;20019;-70
2023/12/31 20:55:47;;;;;;;9.47;3.03;;;;;;;8.46;100.00;99642.97;5320552;27;20035;-71
2023/12/31 20:58:20;;;;;;;8.70;4.53;;;;;;;8.55;100.00;99663.22;5354895;27;20505;-70
2023/12/31 21:00:51;;;;;;;6.43;2.30;;;;;;;8.48;100.00;99639.28;5357924;27;20361;-71
2023/12/31 21:03:24;;;;;;;5.73;2.30;;;;;;;8.32;100.00;99654.38;5318497;27;20031;-73
2023/12/31 21:05:55;;;;;;;5.63;1.90;;;;;;;8.41;100.00;99656.31;5338717;27;20275;-73
2023/12/31 21:08:26;;;;;;;8.43;2.70;;;;;;;8.28;100.00;99653.75;5338114;27;20028;-71
2023/12/31 21:10:59;;;;;;;5.03;2.00;;;;;;;8.31;100.00;99678.78;5347455;27;20110;-70
2023/12/31 21:13:31;;;;;;;6.73;2.03;;;;;;;8.20;100.00;99671.72;5359088;27;20021;-71
2023/12/31 21:16:04;;;;;;;5.63;1.57;;;;;;;8.17;100.00;99672.75;5356982;27;20031;-72
2023/12/31 21:18:36;;;;;;;6.10;1.70;;;;;;;8.20;100.00;99680.34;5341146;27;20019;-70
2023/12/31 21:21:07;;;;;;;2.53;1.10;;;;;;;8.21;100.00;99687.25;5340224;27;20465;-71
2023/12/31 21:23:38;;;;;;;4.13;1.77;;;;;;;8.20;100.00;99674.31;5356864;27;20141;-71
2023/12/31 21:26:10;;;;;;;6.50;1.40;;;;;;;8.14;100.00;99670.34;5328012;27;20029;-70
2023/12/31 21:28:41;;;;;;;3.40;1.77;;;;;;;8.23;100.00;99680.16;5344493;27;20031;-70
2023/12/31 21:31:12;;;;;;;7.10;1.47;;;;;;;8.06;100.00;99668.28;5340624;27;20030;-72
2023/12/31 21:33:48;;;;;;;6.97;1.80;;;;;;;8.11;100.00;99675.78;5337822;27;20049;-72
2023/12/31 21:36:20;;;;;;;5.90;1.77;;;;;;;8.04;100.00;99669.31;5337249;27;20053;-71
2023/12/31 21:38:51;;;;;;;6.83;2.23;;;;;;;8.02;100.00;99655.53;5347926;27;20022;-71
2023/12/31 21:41:23;;;;;;;10.30;2.63;;;;;;;8.13;100.00;99668.69;5359046;27;20026;-72
2023/12/31 21:43:55;;;;;;;7.97;3.40;;;;;;;8.09;100.00;99668.06;5331905;27;20027;-72
2023/12/31 21:46:33;;;;;;;7.20;1.90;;;;;;;8.16;100.00;99665.88;5352974;27;20473;-72